createdAt,value
2022-10-07T00:00:58.500Z,84.08
2022-10-07T00:03:26.874Z,84.69
2022-10-07T00:06:01.479Z,84.60
2022-10-07T00:08:29.282Z,84.89
2022-10-07T00:10:56.920Z,85.45
2022-10-07T00:13:27.070Z,85.28
2022-10-07T00:16:03.494Z,85.59
2022-10-07T00:18:31.382Z,85.61
2022-10-07T00:21:13.884Z,85.94
2022-10-07T00:23:44.809Z,85.77
2022-10-07T00:26:14.318Z,85.88
2022-10-07T00:28:44.128Z,85.97
2022-10-07T00:31:22.823Z,86.28
2022-10-07T00:33:50.780Z,86.17
2022-10-07T00:36:20.859Z,86.74
2022-10-07T00:38:56.865Z,87.52
2022-10-07T00:41:26.732Z,87.41
2022-10-07T00:43:54.400Z,87.65
2022-10-07T00:46:27.225Z,88.85
2022-10-07T00:49:01.079Z,89.42
2022-10-07T00:51:29.255Z,89.42
2022-10-07T00:53:56.801Z,90.79
2022-10-07T00:56:24.721Z,91.23
2022-10-07T00:58:52.301Z,93.25
2022-10-07T01:01:20.649Z,92.77
2022-10-07T01:03:48.603Z,93.18
2022-10-07T01:06:16.285Z,93.92
2022-10-07T01:08:44.813Z,94.14
2022-10-07T01:11:31.188Z,94.35
2022-10-07T01:14:24.859Z,93.58
2022-10-07T01:17:11.382Z,93.19
2022-10-07T01:20:09.706Z,93.46
2022-10-07T01:22:44.624Z,93.23
2022-10-07T01:25:29.866Z,93.47
2022-10-07T01:28:20.004Z,92.96
2022-10-07T01:30:50.467Z,93.68
2022-10-07T01:33:19.573Z,93.18
2022-10-07T01:35:48.776Z,93.41
2022-10-07T01:38:23.076Z,93.64
2022-10-07T01:40:55.315Z,93.83
2022-10-07T01:43:24.518Z,92.84
2022-10-07T01:45:52.764Z,92.58
2022-10-07T01:48:20.528Z,92.37
2022-10-07T01:50:48.569Z,93.15
2022-10-07T01:53:35.005Z,92.72
2022-10-07T01:56:10.661Z,92.84
2022-10-07T01:58:44.714Z,92.78
2022-10-07T02:01:38.413Z,93.40
2022-10-07T02:04:11.175Z,93.96
2022-10-07T02:07:05.092Z,94.18
2022-10-07T02:10:01.234Z,92.96
2022-10-07T02:12:46.617Z,93.77
2022-10-07T02:15:17.722Z,93.42
2022-10-07T02:17:49.956Z,93.32
2022-10-07T02:20:17.766Z,93.13
2022-10-07T02:22:45.857Z,94.56
2022-10-07T02:25:14.408Z,94.40
2022-10-07T02:27:43.320Z,93.89
2022-10-07T02:30:15.523Z,93.81
2022-10-07T02:32:47.845Z,94.08
2022-10-07T02:35:21.264Z,93.41
2022-10-07T02:37:49.124Z,93.58
2022-10-07T02:40:16.947Z,93.28
2022-10-07T02:42:51.944Z,92.53
2022-10-07T02:45:29.653Z,92.68
2022-10-07T02:48:23.744Z,92.37
2022-10-07T02:50:53.798Z,92.58
2022-10-07T02:53:21.546Z,92.53
2022-10-07T02:55:49.385Z,92.52
2022-10-07T02:58:16.919Z,92.35
2022-10-07T03:00:47.569Z,92.44
2022-10-07T03:03:16.481Z,92.61
2022-10-07T03:05:58.989Z,92.85
2022-10-07T03:08:28.450Z,92.67
2022-10-07T03:10:57.135Z,92.78
2022-10-07T03:13:26.645Z,92.61
2022-10-07T03:15:58.959Z,92.95
2022-10-07T03:18:28.692Z,93.38
2022-10-07T03:21:16.505Z,93.10
2022-10-07T03:23:44.964Z,92.59
2022-10-07T03:26:13.592Z,92.52
2022-10-07T03:28:41.628Z,91.94
2022-10-07T03:31:11.998Z,91.86
2022-10-07T03:33:44.704Z,92.33
2022-10-07T03:36:13.465Z,92.52
2022-10-07T03:38:43.814Z,92.56
2022-10-07T03:41:12.881Z,93.01
2022-10-07T03:43:42.612Z,93.33
2022-10-07T03:46:11.933Z,93.37
2022-10-07T03:48:40.928Z,93.69
2022-10-07T03:51:09.115Z,93.73
2022-10-07T03:53:38.917Z,93.81
2022-10-07T03:56:07.610Z,94.40
2022-10-07T03:58:36.848Z,94.48
2022-10-07T04:01:07.496Z,94.68
2022-10-07T04:03:38.452Z,94.97
2022-10-07T04:06:07.139Z,94.99
2022-10-07T04:08:36.108Z,95.22
2022-10-07T04:11:05.263Z,96.04
2022-10-07T04:13:34.277Z,96.13
2022-10-07T04:16:09.449Z,95.66
2022-10-07T04:18:37.749Z,95.80
2022-10-07T04:21:06.339Z,94.71
2022-10-07T04:23:36.224Z,95.77
2022-10-07T04:26:12.077Z,95.00
2022-10-07T04:28:43.872Z,94.70
2022-10-07T04:31:14.473Z,94.42
2022-10-07T04:33:46.541Z,93.87
2022-10-07T04:36:20.301Z,94.25
2022-10-07T04:38:53.310Z,96.09
2022-10-07T04:41:26.151Z,96.15
2022-10-07T04:43:57.567Z,95.70
2022-10-07T04:46:30.205Z,95.95
2022-10-07T04:49:03.990Z,95.30
2022-10-07T04:51:32.054Z,95.26
2022-10-07T04:54:01.493Z,94.62
2022-10-07T04:56:52.359Z,94.61
2022-10-07T04:59:25.456Z,93.91
2022-10-07T05:01:56.820Z,93.71
2022-10-07T05:04:25.072Z,94.19
2022-10-07T05:06:54.280Z,93.73
2022-10-07T05:09:22.219Z,93.23
2022-10-07T05:11:55.773Z,92.58
2022-10-07T05:14:24.234Z,92.10
2022-10-07T05:16:54.207Z,91.27
2022-10-07T05:19:28.901Z,90.67
2022-10-07T05:21:56.695Z,90.38
2022-10-07T05:24:26.555Z,90.08
2022-10-07T05:26:54.877Z,89.84
2022-10-07T05:29:22.709Z,89.02
2022-10-07T05:31:52.910Z,89.21
2022-10-07T05:34:24.079Z,88.66
2022-10-07T05:36:53.782Z,87.75
2022-10-07T05:39:22.639Z,87.36
2022-10-07T05:41:53.728Z,87.04
2022-10-07T05:44:26.601Z,87.04
2022-10-07T05:46:57.314Z,85.97
2022-10-07T05:49:25.262Z,85.71
2022-10-07T05:51:52.896Z,86.21
2022-10-07T05:54:21.026Z,86.28
2022-10-07T05:56:48.867Z,85.89
2022-10-07T05:59:19.176Z,85.44
2022-10-07T06:01:47.226Z,85.58
2022-10-07T06:04:20.114Z,85.99
2022-10-07T06:06:49.500Z,86.21
2022-10-07T06:09:39.071Z,86.17
2022-10-07T06:12:31.500Z,86.68
2022-10-07T06:15:02.200Z,87.09
2022-10-07T06:17:30.368Z,86.56
2022-10-07T06:20:02.880Z,86.28
2022-10-07T06:22:32.158Z,85.97
2022-10-07T06:25:02.559Z,86.04
2022-10-07T06:27:32.972Z,85.92
2022-10-07T06:30:00.594Z,86.11
2022-10-07T06:32:32.803Z,85.45
2022-10-07T06:35:01.401Z,84.36
2022-10-07T06:37:32.425Z,82.47
2022-10-07T06:40:00.375Z,82.07
2022-10-07T06:42:31.733Z,81.64
2022-10-07T06:45:19.298Z,80.52
2022-10-07T06:47:50.019Z,80.14
2022-10-07T06:50:17.993Z,79.29
2022-10-07T06:52:45.627Z,79.76
2022-10-07T06:55:13.704Z,79.53
2022-10-07T06:57:45.789Z,79.14
2022-10-07T07:00:15.938Z,78.16
2022-10-07T07:02:45.014Z,78.33
2022-10-07T07:05:16.238Z,77.28
2022-10-07T07:07:46.465Z,77.37
2022-10-07T07:10:15.259Z,77.31
2022-10-07T07:12:49.018Z,77.11
2022-10-07T07:15:17.623Z,76.65
2022-10-07T07:17:45.367Z,75.63
2022-10-07T07:20:14.814Z,75.61
2022-10-07T07:22:44.336Z,75.10
2022-10-07T07:25:12.269Z,74.33
2022-10-07T07:27:40.306Z,74.16
2022-10-07T07:30:10.421Z,74.15
2022-10-07T07:32:38.264Z,74.34
2022-10-07T07:35:07.025Z,73.89
2022-10-07T07:37:34.633Z,74.15
2022-10-07T07:40:03.146Z,72.55
2022-10-07T07:42:32.865Z,73.11
2022-10-07T07:45:00.933Z,72.34
2022-10-07T07:47:28.556Z,72.52
2022-10-07T07:49:56.827Z,72.41
2022-10-07T07:52:31.973Z,72.05
2022-10-07T07:55:03.295Z,71.70
2022-10-07T07:57:31.700Z,70.65
2022-10-07T08:00:05.529Z,70.15
2022-10-07T08:02:42.424Z,70.69
2022-10-07T08:05:14.928Z,69.54
2022-10-07T08:07:42.690Z,69.24
2022-10-07T08:10:13.158Z,68.72
2022-10-07T08:12:41.184Z,68.58
2022-10-07T08:15:10.936Z,69.02
2022-10-07T08:17:41.318Z,68.90
2022-10-07T08:20:10.925Z,69.07
2022-10-07T08:22:45.986Z,68.37
2022-10-07T08:25:15.361Z,68.90
2022-10-07T08:27:44.576Z,68.00
2022-10-07T08:30:13.449Z,69.39
2022-10-07T08:32:41.406Z,68.62
2022-10-07T08:35:09.602Z,68.81
2022-10-07T08:37:37.314Z,68.55
2022-10-07T08:40:05.742Z,68.52
2022-10-07T08:42:35.389Z,66.44
2022-10-07T08:45:03.263Z,67.13
2022-10-07T08:47:45.600Z,68.27
2022-10-07T08:50:20.170Z,66.82
2022-10-07T08:53:03.226Z,66.11
2022-10-07T08:55:39.716Z,65.90
2022-10-07T08:58:32.183Z,65.92
2022-10-07T09:01:15.637Z,65.02
2022-10-07T09:04:06.355Z,64.23
2022-10-07T09:07:10.105Z,64.30
2022-10-07T09:09:56.148Z,64.13
2022-10-07T09:12:49.768Z,63.29
2022-10-07T09:15:32.892Z,62.58
2022-10-07T09:18:03.861Z,62.23
2022-10-07T09:20:35.155Z,62.78
2022-10-07T09:23:04.794Z,63.51
2022-10-07T09:25:34.219Z,61.68
2022-10-07T09:28:01.906Z,61.40
2022-10-07T09:30:29.758Z,61.75
2022-10-07T09:32:57.402Z,61.53
2022-10-07T09:35:27.105Z,59.34
2022-10-07T09:37:55.826Z,60.42
2022-10-07T09:40:33.808Z,60.30
2022-10-07T09:43:01.514Z,59.88
2022-10-07T09:45:33.022Z,61.16
2022-10-07T09:48:08.491Z,60.18
2022-10-07T09:50:38.409Z,58.62
2022-10-07T09:53:16.455Z,58.57
2022-10-07T09:55:44.142Z,59.04
2022-10-07T09:58:21.533Z,60.17
2022-10-07T10:00:50.421Z,58.95
2022-10-07T10:03:18.657Z,57.99
2022-10-07T10:06:00.488Z,59.26
2022-10-07T10:08:43.920Z,57.76
2022-10-07T10:11:20.896Z,57.23
2022-10-07T10:13:49.587Z,58.32
2022-10-07T10:16:37.653Z,56.64
2022-10-07T10:19:27.199Z,56.49
2022-10-07T10:21:59.497Z,56.14
2022-10-07T10:24:47.708Z,56.25
2022-10-07T10:27:21.419Z,56.33
2022-10-07T10:30:22.001Z,56.71
2022-10-07T10:32:53.634Z,55.47
2022-10-07T10:35:53.810Z,54.87
2022-10-07T10:38:26.933Z,54.21
2022-10-07T10:40:59.392Z,55.85
2022-10-07T10:44:00.627Z,55.82
2022-10-07T10:46:52.583Z,53.77
2022-10-07T10:49:29.222Z,52.57
2022-10-07T10:52:20.517Z,51.64
2022-10-07T10:55:13.667Z,52.55
2022-10-07T10:58:08.067Z,53.95
2022-10-07T11:00:45.413Z,55.32
2022-10-07T11:03:41.666Z,55.92
2022-10-07T11:06:11.044Z,54.45
2022-10-07T11:08:39.066Z,54.06
2022-10-07T11:13:37.711Z,53.22
2022-10-07T11:16:10.057Z,53.82
2022-10-07T11:19:05.341Z,54.28
2022-10-07T11:21:45.055Z,52.55
2022-10-07T11:24:34.574Z,53.25
2022-10-07T11:27:26.140Z,51.71
2022-10-07T11:29:56.735Z,51.33
2022-10-07T11:32:46.233Z,51.00
2022-10-07T11:35:22.249Z,50.06
2022-10-07T11:38:09.959Z,49.83
2022-10-07T11:41:08.641Z,49.31
2022-10-07T11:43:45.423Z,49.89
2022-10-07T11:46:33.219Z,48.05
2022-10-07T11:49:23.702Z,48.17
2022-10-07T11:52:12.106Z,46.67
2022-10-07T11:54:42.789Z,48.09
2022-10-07T11:57:22.505Z,47.42
2022-10-07T12:00:01.723Z,47.49
2022-10-07T12:02:29.764Z,46.78
2022-10-07T12:05:01.403Z,46.80
2022-10-07T12:08:02.405Z,46.34
2022-10-07T12:10:32.028Z,47.87
2022-10-07T12:13:11.147Z,47.88
2022-10-07T12:15:42.369Z,47.80
2022-10-07T12:18:20.153Z,47.53
2022-10-07T12:20:50.608Z,47.53
2022-10-07T12:23:20.892Z,47.16
2022-10-07T12:25:53.567Z,46.29
2022-10-07T12:28:24.454Z,47.31
2022-10-07T12:30:53.636Z,48.59
2022-10-07T12:33:43.412Z,47.83
2022-10-07T12:36:22.896Z,47.08
2022-10-07T12:38:57.601Z,46.86
2022-10-07T12:41:25.812Z,47.09
2022-10-07T12:43:59.204Z,46.44
2022-10-07T12:46:29.699Z,45.08
2022-10-07T12:49:14.147Z,43.76
2022-10-07T12:51:41.703Z,43.31
2022-10-07T12:54:20.208Z,42.09
2022-10-07T12:56:49.920Z,41.91
2022-10-07T12:59:47.892Z,42.68
2022-10-07T13:02:36.426Z,43.00
2022-10-07T13:05:10.091Z,42.83
2022-10-07T13:07:50.032Z,41.92
2022-10-07T13:10:35.734Z,41.52
2022-10-07T13:13:07.749Z,40.47
2022-10-07T13:15:47.897Z,40.57
2022-10-07T13:18:20.114Z,39.90
2022-10-07T13:20:54.501Z,40.37
2022-10-07T13:23:26.960Z,40.26
2022-10-07T13:25:56.336Z,40.35
2022-10-07T13:28:25.416Z,40.71
2022-10-07T13:30:53.416Z,40.00
2022-10-07T13:33:31.764Z,39.57
2022-10-07T13:36:11.658Z,39.44
2022-10-07T13:38:40.118Z,41.02
2022-10-07T13:41:23.304Z,41.19
2022-10-07T13:43:54.834Z,40.92
2022-10-07T13:46:25.804Z,42.13
2022-10-07T13:48:56.421Z,42.12
2022-10-07T13:51:37.547Z,41.19
2022-10-07T13:54:06.623Z,40.54
2022-10-07T13:56:43.447Z,41.48
2022-10-07T13:59:18.155Z,41.26
2022-10-07T14:01:56.841Z,40.46
2022-10-07T14:04:34.481Z,40.97
2022-10-07T14:07:13.126Z,41.22
2022-10-07T14:09:50.753Z,41.10
2022-10-07T14:12:25.009Z,40.94
2022-10-07T14:14:55.792Z,41.42
2022-10-07T14:17:32.738Z,41.56
2022-10-07T14:20:05.857Z,42.59
2022-10-07T14:22:38.720Z,42.28
2022-10-07T14:25:07.793Z,42.80
2022-10-07T14:27:39.791Z,42.51
2022-10-07T14:30:29.250Z,43.41
2022-10-07T14:33:27.938Z,44.14
2022-10-07T14:36:27.031Z,45.71
2022-10-07T14:38:58.303Z,45.92
2022-10-07T14:41:29.388Z,46.18
2022-10-07T14:44:00.474Z,46.86
2022-10-07T14:46:28.520Z,47.94
2022-10-07T14:48:56.543Z,48.51
2022-10-07T14:51:27.101Z,48.96
2022-10-07T14:54:06.013Z,49.84
2022-10-07T14:56:35.777Z,51.00
2022-10-07T14:59:03.295Z,51.25
2022-10-07T15:01:31.434Z,51.80
2022-10-07T15:03:59.132Z,52.14
2022-10-07T15:06:26.831Z,52.88
2022-10-07T15:08:56.939Z,53.12
2022-10-07T15:11:24.523Z,53.53
2022-10-07T15:13:52.087Z,55.19
2022-10-07T15:16:26.781Z,58.13
2022-10-07T15:18:54.701Z,57.81
2022-10-07T15:21:22.404Z,57.57
2022-10-07T15:23:53.592Z,58.14
2022-10-07T15:26:24.006Z,59.91
2022-10-07T15:28:56.532Z,60.63
2022-10-07T15:31:27.599Z,60.67
2022-10-07T15:33:58.122Z,62.19
2022-10-07T15:36:29.245Z,64.84
2022-10-07T15:38:59.045Z,65.95
2022-10-07T15:41:33.927Z,66.48
2022-10-07T15:44:04.632Z,66.84
2022-10-07T15:46:32.487Z,67.59
2022-10-07T15:49:00.372Z,67.50
2022-10-07T15:51:28.129Z,66.60
2022-10-07T15:53:55.713Z,65.68
2022-10-07T15:56:25.585Z,65.22
2022-10-07T15:58:54.709Z,66.22
2022-10-07T16:01:22.552Z,66.48
2022-10-07T16:03:50.221Z,67.46
2022-10-07T16:06:23.699Z,66.99
2022-10-07T16:08:52.200Z,67.41
2022-10-07T16:11:19.780Z,67.67
2022-10-07T16:13:48.318Z,67.52
2022-10-07T16:16:22.743Z,67.81
2022-10-07T16:18:51.359Z,68.88
2022-10-07T16:21:24.353Z,70.12
2022-10-07T16:23:54.899Z,70.95
2022-10-07T16:26:25.796Z,72.00
2022-10-07T16:29:12.383Z,72.78
2022-10-07T16:31:40.993Z,73.63
2022-10-07T16:34:09.950Z,74.28
2022-10-07T16:36:42.085Z,75.35
2022-10-07T16:39:12.570Z,75.61
2022-10-07T16:41:41.776Z,75.96
2022-10-07T16:44:13.138Z,77.45
2022-10-07T16:46:41.629Z,77.47
2022-10-07T16:49:12.527Z,78.44
2022-10-07T16:51:40.262Z,79.22
2022-10-07T16:54:13.838Z,79.69
2022-10-07T16:56:42.469Z,80.15
2022-10-07T16:59:10.757Z,80.39
2022-10-07T17:01:39.496Z,82.53
2022-10-07T17:04:09.565Z,81.41
2022-10-07T17:06:37.277Z,81.80
2022-10-07T17:09:04.885Z,82.26
2022-10-07T17:11:33.673Z,82.90
2022-10-07T17:14:01.900Z,82.61
2022-10-07T17:16:37.969Z,83.30
2022-10-07T17:19:06.552Z,84.17
2022-10-07T17:21:36.300Z,83.77
2022-10-07T17:24:04.447Z,84.52
2022-10-07T17:26:32.212Z,84.17
2022-10-07T17:29:02.205Z,84.41
2022-10-07T17:31:30.730Z,85.01
2022-10-07T17:33:58.723Z,85.93
2022-10-07T17:36:26.941Z,85.98
2022-10-07T17:38:54.628Z,86.31
2022-10-07T17:41:26.983Z,86.24
2022-10-07T17:43:56.515Z,86.14
2022-10-07T17:46:26.135Z,85.96
2022-10-07T17:48:57.752Z,87.00
2022-10-07T17:51:27.587Z,86.81
2022-10-07T17:53:56.580Z,87.19
2022-10-07T17:56:24.218Z,87.08
2022-10-07T17:58:51.836Z,87.06
2022-10-07T18:01:24.247Z,87.24
2022-10-07T18:03:53.490Z,87.58
2022-10-07T18:06:25.749Z,87.60
2022-10-07T18:08:53.887Z,88.46
2022-10-07T18:11:21.464Z,88.57
2022-10-07T18:14:08.162Z,88.60
2022-10-07T18:16:35.890Z,89.19
2022-10-07T18:19:03.711Z,88.71
2022-10-07T18:21:31.614Z,88.43
2022-10-07T18:23:59.318Z,88.60
2022-10-07T18:26:29.073Z,90.09
2022-10-07T18:28:57.660Z,89.86
2022-10-07T18:31:26.543Z,89.94
2022-10-07T18:33:54.200Z,90.00
2022-10-07T18:36:22.549Z,90.09
2022-10-07T18:38:50.228Z,90.12
2022-10-07T18:41:18.010Z,90.18
2022-10-07T18:43:46.328Z,90.80
2022-10-07T18:46:18.257Z,91.70
2022-10-07T18:48:48.176Z,91.53
2022-10-07T18:51:15.919Z,91.10
2022-10-07T18:53:44.645Z,90.93
2022-10-07T18:56:22.898Z,90.65
2022-10-07T18:58:51.626Z,90.27
2022-10-07T19:01:23.684Z,90.58
2022-10-07T19:03:55.765Z,90.94
2022-10-07T19:06:24.252Z,90.97
2022-10-07T19:08:59.101Z,92.35
2022-10-07T19:11:30.621Z,92.69
2022-10-07T19:13:59.337Z,93.43
2022-10-07T19:16:37.334Z,93.41
2022-10-07T19:19:12.112Z,92.79
2022-10-07T19:21:40.564Z,92.01
2022-10-07T19:24:08.131Z,92.09
2022-10-07T19:26:38.744Z,92.10
2022-10-07T19:29:11.141Z,91.93
2022-10-07T19:31:41.509Z,91.87
2022-10-07T19:34:13.761Z,91.48
2022-10-07T19:36:47.190Z,91.89
2022-10-07T19:39:16.188Z,92.48
2022-10-07T19:41:44.263Z,92.54
2022-10-07T19:44:13.285Z,92.36
2022-10-07T19:46:43.965Z,92.20
2022-10-07T19:49:12.661Z,93.85
2022-10-07T19:51:42.058Z,93.21
2022-10-07T19:54:13.347Z,92.81
2022-10-07T19:56:41.893Z,92.38
2022-10-07T19:59:11.180Z,92.25
2022-10-07T20:01:43.579Z,91.79
2022-10-07T20:04:15.967Z,91.89
2022-10-07T20:06:44.001Z,91.85
2022-10-07T20:09:15.189Z,91.82
2022-10-07T20:11:53.405Z,91.79
2022-10-07T20:14:21.669Z,91.91
2022-10-07T20:16:49.287Z,92.04
2022-10-07T20:19:18.709Z,91.99
2022-10-07T20:21:48.239Z,91.84
2022-10-07T20:24:16.618Z,91.81
2022-10-07T20:26:45.044Z,92.04
2022-10-07T20:29:14.008Z,92.20
2022-10-07T20:31:41.934Z,92.56
2022-10-07T20:34:13.340Z,93.03
2022-10-07T20:36:42.137Z,92.75
2022-10-07T20:39:38.350Z,92.51
2022-10-07T20:42:21.333Z,92.39
2022-10-07T20:44:49.395Z,92.55
2022-10-07T20:47:18.053Z,92.46
2022-10-07T20:49:45.945Z,92.99
2022-10-07T20:52:17.672Z,92.95
2022-10-07T20:54:46.148Z,93.07
2022-10-07T20:57:16.502Z,93.29
2022-10-07T20:59:44.183Z,93.41
2022-10-07T21:02:13.731Z,93.68
2022-10-07T21:04:41.534Z,93.49
2022-10-07T21:07:10.174Z,93.49
2022-10-07T21:09:41.127Z,93.74
2022-10-07T21:12:13.899Z,93.83
2022-10-07T21:14:44.896Z,93.66
2022-10-07T21:17:18.007Z,94.32
2022-10-07T21:19:45.880Z,94.31
2022-10-07T21:22:13.520Z,94.52
2022-10-07T21:24:42.247Z,94.55
2022-10-07T21:27:10.017Z,94.93
2022-10-07T21:29:40.808Z,95.10
2022-10-07T21:32:10.227Z,95.26
2022-10-07T21:34:38.343Z,95.33
2022-10-07T21:37:05.999Z,95.62
2022-10-07T21:39:33.857Z,95.67
2022-10-07T21:42:02.264Z,96.03
2022-10-07T21:44:33.528Z,95.69
2022-10-07T21:47:01.311Z,95.79
2022-10-07T21:49:29.465Z,95.62
2022-10-07T21:51:57.092Z,95.54
2022-10-07T21:54:26.340Z,95.49
2022-10-07T21:56:54.287Z,95.54
2022-10-07T21:59:21.797Z,95.63
2022-10-07T22:01:49.804Z,95.94
2022-10-07T22:04:17.996Z,95.95
2022-10-07T22:07:04.421Z,96.00
2022-10-07T22:09:32.456Z,95.96
2022-10-07T22:12:02.611Z,96.14
2022-10-07T22:14:30.401Z,96.02
2022-10-07T22:17:00.119Z,96.37
2022-10-07T22:19:28.081Z,96.29
2022-10-07T22:21:57.231Z,96.09
2022-10-07T22:24:25.024Z,96.07
2022-10-07T22:26:52.677Z,95.92
2022-10-07T22:29:21.874Z,96.04
2022-10-07T22:31:49.500Z,96.01
2022-10-07T22:34:35.618Z,96.26
2022-10-07T22:37:04.494Z,96.54
2022-10-07T22:39:32.084Z,97.27
2022-10-07T22:42:01.200Z,97.47
2022-10-07T22:44:29.058Z,97.87
2022-10-07T22:46:56.938Z,97.78
2022-10-07T22:49:29.605Z,97.26
2022-10-07T22:51:59.897Z,97.38
2022-10-07T22:54:27.832Z,96.82
2022-10-07T22:56:58.129Z,96.97
2022-10-07T22:59:25.915Z,96.97
2022-10-07T23:01:53.606Z,97.12
2022-10-07T23:04:21.737Z,97.33
2022-10-07T23:06:49.935Z,97.30
2022-10-07T23:09:17.628Z,97.00
2022-10-07T23:11:45.999Z,97.22
2022-10-07T23:14:15.228Z,97.29
2022-10-07T23:16:44.445Z,97.28
2022-10-07T23:19:12.055Z,97.38
2022-10-07T23:21:39.743Z,97.55
2022-10-07T23:24:10.197Z,97.29
2022-10-07T23:26:38.543Z,97.29
2022-10-07T23:29:07.698Z,97.31
2022-10-07T23:31:38.359Z,96.95
2022-10-07T23:34:06.646Z,97.29
2022-10-07T23:36:35.195Z,97.21
2022-10-07T23:39:03.461Z,97.47
2022-10-07T23:41:31.544Z,97.57
2022-10-07T23:44:00.837Z,97.17
2022-10-07T23:46:28.936Z,97.29
2022-10-07T23:48:56.577Z,97.47
2022-10-07T23:51:25.332Z,97.85
2022-10-07T23:53:53.010Z,97.93
2022-10-07T23:56:20.964Z,98.37
2022-10-07T23:58:48.679Z,98.51
